createdAt,value
2018-02-22T00:00:39.316Z,-0.67
2018-02-22T00:03:06.808Z,-0.72
2018-02-22T00:05:34.278Z,-0.68
2018-02-22T00:08:01.792Z,-0.72
2018-02-22T00:10:29.274Z,-0.74
2018-02-22T00:12:56.767Z,-0.84
2018-02-22T00:15:24.235Z,-0.90
2018-02-22T00:17:51.745Z,-0.99
2018-02-22T00:20:19.208Z,-1.06
2018-02-22T00:22:46.698Z,-1.13
2018-02-22T00:25:14.162Z,-1.19
2018-02-22T00:27:41.656Z,-1.16
2018-02-22T00:30:09.123Z,-1.21
2018-02-22T00:32:36.616Z,-1.26
2018-02-22T00:35:04.092Z,-1.31
2018-02-22T00:37:31.610Z,-1.38
2018-02-22T00:39:59.075Z,-1.45
2018-02-22T00:42:26.558Z,-1.40
2018-02-22T00:44:54.028Z,-1.40
2018-02-22T00:47:21.532Z,-1.40
2018-02-22T00:49:49.003Z,-1.53
2018-02-22T00:52:16.491Z,-1.48
2018-02-22T00:54:43.966Z,-1.39
2018-02-22T00:57:11.463Z,-1.46
2018-02-22T00:59:38.951Z,-1.47
2018-02-22T01:02:06.435Z,-1.59
2018-02-22T01:04:33.918Z,-1.65
2018-02-22T01:07:01.406Z,-1.47
2018-02-22T01:09:28.893Z,-1.43
2018-02-22T01:11:56.390Z,-1.43
2018-02-22T01:14:23.856Z,-1.43
2018-02-22T01:16:51.356Z,-1.52
2018-02-22T01:19:18.835Z,-1.50
2018-02-22T01:21:46.314Z,-1.59
2018-02-22T01:24:13.799Z,-1.48
2018-02-22T01:26:41.288Z,-1.49
2018-02-22T01:29:08.781Z,-1.60
2018-02-22T01:31:36.250Z,-1.63
2018-02-22T01:34:03.735Z,-1.66
2018-02-22T01:36:31.207Z,-1.66
2018-02-22T01:38:58.719Z,-1.67
2018-02-22T01:41:26.195Z,-1.76
2018-02-22T01:43:53.682Z,-1.68
2018-02-22T01:46:21.160Z,-1.70
2018-02-22T01:48:48.638Z,-1.88
2018-02-22T01:51:16.127Z,-1.90
2018-02-22T01:53:43.607Z,-1.92
2018-02-22T01:56:11.076Z,-2.11
2018-02-22T01:58:38.559Z,-2.03
2018-02-22T02:01:06.031Z,-2.15
2018-02-22T02:03:33.517Z,-2.31
2018-02-22T02:06:00.987Z,-2.26
2018-02-22T02:08:28.487Z,-2.24
2018-02-22T02:10:55.959Z,-2.07
2018-02-22T02:13:23.535Z,-1.89
2018-02-22T02:15:51.002Z,-1.98
2018-02-22T02:18:18.495Z,-1.90
2018-02-22T02:20:45.992Z,-2.05
2018-02-22T02:23:13.475Z,-2.20
2018-02-22T02:25:40.959Z,-2.22
2018-02-22T02:28:08.446Z,-2.29
2018-02-22T02:30:35.918Z,-2.16
2018-02-22T02:33:03.403Z,-2.14
2018-02-22T02:35:30.882Z,-2.22
2018-02-22T02:37:58.385Z,-2.33
2018-02-22T02:40:25.864Z,-2.38
2018-02-22T02:42:53.340Z,-2.44
2018-02-22T02:45:20.836Z,-2.43
2018-02-22T02:47:48.308Z,-2.49
2018-02-22T02:50:15.795Z,-2.43
2018-02-22T02:52:43.284Z,-2.44
2018-02-22T02:55:10.771Z,-2.26
2018-02-22T02:57:38.244Z,-2.26
2018-02-22T03:00:05.736Z,-2.39
2018-02-22T03:02:33.214Z,-2.39
2018-02-22T03:05:00.719Z,-2.32
2018-02-22T03:07:28.189Z,-2.39
2018-02-22T03:09:55.680Z,-2.37
2018-02-22T03:12:24.147Z,-2.44
2018-02-22T03:14:51.640Z,-2.51
2018-02-22T03:17:19.111Z,-2.56
2018-02-22T03:19:46.615Z,-2.61
2018-02-22T03:22:14.099Z,-2.48
2018-02-22T03:24:41.591Z,-2.28
2018-02-22T03:27:09.062Z,-2.14
2018-02-22T03:29:36.542Z,-2.32
2018-02-22T03:32:04.036Z,-2.40
2018-02-22T03:34:31.525Z,-2.38
2018-02-22T03:36:58.999Z,-2.51
2018-02-22T03:39:26.489Z,-2.42
2018-02-22T03:41:53.948Z,-2.50
2018-02-22T03:44:21.434Z,-2.27
2018-02-22T03:46:48.919Z,-2.32
2018-02-22T03:49:16.420Z,-2.34
2018-02-22T03:51:43.897Z,-2.58
2018-02-22T03:54:11.367Z,-2.61
2018-02-22T03:56:38.851Z,-2.46
2018-02-22T03:59:06.322Z,-2.60
2018-02-22T04:01:33.817Z,-2.93
2018-02-22T04:04:01.279Z,-2.81
2018-02-22T04:06:28.771Z,-2.88
2018-02-22T04:08:56.231Z,-3.02
2018-02-22T04:11:23.722Z,-2.94
2018-02-22T04:13:51.200Z,-2.80
2018-02-22T04:16:18.686Z,-2.73
2018-02-22T04:18:46.160Z,-2.76
2018-02-22T04:21:13.650Z,-2.82
2018-02-22T04:23:41.111Z,-2.88
2018-02-22T04:26:08.613Z,-2.94
2018-02-22T04:28:36.083Z,-2.92
2018-02-22T04:31:03.577Z,-2.94
2018-02-22T04:33:31.053Z,-2.90
2018-02-22T04:35:58.557Z,-3.02
2018-02-22T04:38:26.752Z,-3.12
2018-02-22T04:40:54.244Z,-3.10
2018-02-22T04:43:21.715Z,-3.10
2018-02-22T04:45:49.216Z,-3.22
2018-02-22T04:48:16.683Z,-3.30
2018-02-22T04:50:44.194Z,-3.40
2018-02-22T04:53:11.669Z,-3.39
2018-02-22T04:55:39.160Z,-3.28
2018-02-22T04:58:06.633Z,-3.09
2018-02-22T05:00:34.124Z,-3.09
2018-02-22T05:03:03.276Z,-3.23
2018-02-22T05:05:30.768Z,-3.28
2018-02-22T05:07:58.239Z,-3.27
2018-02-22T05:10:25.736Z,-3.34
2018-02-22T05:12:53.203Z,-3.40
2018-02-22T05:15:20.682Z,-3.28
2018-02-22T05:17:48.171Z,-3.49
2018-02-22T05:20:15.639Z,-3.39
2018-02-22T05:22:43.132Z,-3.32
2018-02-22T05:25:10.605Z,-3.22
2018-02-22T05:27:38.108Z,-3.25
2018-02-22T05:30:05.587Z,-3.11
2018-02-22T05:32:33.076Z,-3.16
2018-02-22T05:35:00.539Z,-3.09
2018-02-22T05:37:28.032Z,-3.05
2018-02-22T05:39:55.510Z,-3.04
2018-02-22T05:42:23.016Z,-2.95
2018-02-22T05:44:50.483Z,-2.99
2018-02-22T05:47:17.976Z,-3.12
2018-02-22T05:49:45.449Z,-3.23
2018-02-22T05:52:12.948Z,-3.21
2018-02-22T05:54:40.428Z,-3.39
2018-02-22T05:57:07.912Z,-3.25
2018-02-22T05:59:35.376Z,-3.18
2018-02-22T06:02:02.864Z,-3.10
2018-02-22T06:04:30.335Z,-3.12
2018-02-22T06:06:57.830Z,-3.03
2018-02-22T06:09:25.295Z,-2.97
2018-02-22T06:11:52.800Z,-2.92
2018-02-22T06:14:20.272Z,-2.83
2018-02-22T06:16:47.772Z,-3.01
2018-02-22T06:19:15.250Z,-3.24
2018-02-22T06:21:42.748Z,-3.13
2018-02-22T06:24:10.211Z,-2.98
2018-02-22T06:26:37.785Z,-3.00
2018-02-22T06:29:05.260Z,-3.11
2018-02-22T06:31:33.219Z,-3.18
2018-02-22T06:34:00.686Z,-3.35
2018-02-22T06:36:28.169Z,-3.52
2018-02-22T06:38:55.668Z,-3.53
2018-02-22T06:41:23.139Z,-3.30
2018-02-22T06:43:50.631Z,-3.29
2018-02-22T06:46:18.848Z,-3.23
2018-02-22T06:48:46.367Z,-3.31
2018-02-22T06:51:13.847Z,-3.33
2018-02-22T06:53:41.345Z,-3.25
2018-02-22T06:56:08.846Z,-3.40
2018-02-22T06:58:36.345Z,-3.37
2018-02-22T07:01:03.810Z,-3.20
2018-02-22T07:03:31.304Z,-3.33
2018-02-22T07:05:58.787Z,-3.03
2018-02-22T07:08:26.283Z,-2.87
2018-02-22T07:10:53.758Z,-2.88
2018-02-22T07:13:21.319Z,-2.81
2018-02-22T07:15:48.785Z,-2.77
2018-02-22T07:18:16.271Z,-2.80
2018-02-22T07:20:43.742Z,-2.74
2018-02-22T07:23:16.789Z,-2.65
2018-02-22T07:25:39.364Z,-2.61
2018-02-22T07:28:06.867Z,-2.48
2018-02-22T07:30:34.340Z,-2.56
2018-02-22T07:33:01.837Z,-2.49
2018-02-22T07:35:29.312Z,-2.40
2018-02-22T07:37:56.822Z,-2.38
2018-02-22T07:40:24.291Z,-2.25
2018-02-22T07:42:51.775Z,-2.05
2018-02-22T07:45:19.249Z,-1.89
2018-02-22T07:47:47.249Z,-1.70
2018-02-22T07:50:14.731Z,-1.55
2018-02-22T07:52:42.215Z,-1.38
2018-02-22T07:55:09.687Z,-1.20
2018-02-22T07:57:37.191Z,-1.06
2018-02-22T08:00:04.715Z,-1.03
2018-02-22T08:02:32.192Z,-0.87
2018-02-22T08:04:59.701Z,-0.74
2018-02-22T08:07:27.222Z,-0.56
2018-02-22T08:09:54.742Z,-0.39
2018-02-22T08:12:22.240Z,-0.29
2018-02-22T08:14:49.739Z,-0.17
2018-02-22T08:17:17.216Z,-0.03
2018-02-22T08:19:44.708Z,0.11
2018-02-22T08:22:12.173Z,0.19
2018-02-22T08:24:39.659Z,0.29
2018-02-22T08:27:07.131Z,0.22
2018-02-22T08:29:34.611Z,0.25
2018-02-22T08:32:02.085Z,0.44
2018-02-22T08:34:29.576Z,0.55
2018-02-22T08:36:57.036Z,0.55
2018-02-22T08:39:24.527Z,0.67
2018-02-22T08:41:51.995Z,0.64
2018-02-22T08:44:19.479Z,0.76
2018-02-22T08:46:46.956Z,0.97
2018-02-22T08:49:14.460Z,1.07
2018-02-22T08:51:41.923Z,1.06
2018-02-22T08:54:09.410Z,1.13
2018-02-22T08:56:36.879Z,1.09
2018-02-22T08:59:04.378Z,1.07
2018-02-22T09:01:31.857Z,1.07
2018-02-22T09:03:59.335Z,1.05
2018-02-22T09:06:26.817Z,1.03
2018-02-22T09:08:54.306Z,0.98
2018-02-22T09:11:21.771Z,0.98
2018-02-22T09:13:49.275Z,1.12
2018-02-22T09:16:16.745Z,1.17
2018-02-22T09:18:44.232Z,1.17
2018-02-22T09:21:11.710Z,1.33
2018-02-22T09:23:39.201Z,1.18
2018-02-22T09:26:06.695Z,1.22
2018-02-22T09:28:34.189Z,1.11
2018-02-22T09:31:01.702Z,1.24
2018-02-22T09:33:29.175Z,1.20
2018-02-22T09:35:56.663Z,1.30
2018-02-22T09:38:24.135Z,1.34
2018-02-22T09:40:51.633Z,1.38
2018-02-22T09:43:19.095Z,1.41
2018-02-22T09:45:46.584Z,1.59
2018-02-22T09:48:14.059Z,1.54
2018-02-22T09:50:41.540Z,1.62
2018-02-22T09:53:09.719Z,1.78
2018-02-22T09:55:37.214Z,1.82
2018-02-22T09:58:04.683Z,1.89
2018-02-22T10:00:32.188Z,1.90
2018-02-22T10:02:59.684Z,1.93
2018-02-22T10:05:27.171Z,2.03
2018-02-22T10:07:54.634Z,2.08
2018-02-22T10:10:22.124Z,2.08
2018-02-22T10:12:49.638Z,2.16
2018-02-22T10:15:17.096Z,2.29
2018-02-22T10:17:44.559Z,2.26
2018-02-22T10:20:12.727Z,2.29
2018-02-22T10:22:40.196Z,2.40
2018-02-22T10:25:07.709Z,2.50
2018-02-22T10:27:35.192Z,2.47
2018-02-22T10:30:02.703Z,2.52
2018-02-22T10:32:30.166Z,2.60
2018-02-22T10:34:57.648Z,2.71
2018-02-22T10:37:25.119Z,2.78
2018-02-22T10:39:52.619Z,2.82
2018-02-22T10:42:20.091Z,2.93
2018-02-22T10:44:47.583Z,3.01
2018-02-22T10:47:15.932Z,3.18
2018-02-22T10:49:43.416Z,3.15
2018-02-22T10:52:11.623Z,3.12
2018-02-22T10:54:39.088Z,3.22
2018-02-22T10:57:06.596Z,3.28
2018-02-22T10:59:34.076Z,3.42
2018-02-22T11:02:07.264Z,3.41
2018-02-22T11:04:34.731Z,3.54
2018-02-22T11:07:02.212Z,3.65
2018-02-22T11:09:29.701Z,3.66
2018-02-22T11:11:57.179Z,3.71
2018-02-22T11:14:24.640Z,3.70
2018-02-22T11:16:53.032Z,3.77
2018-02-22T11:19:20.506Z,3.91
2018-02-22T11:21:47.983Z,3.93
2018-02-22T11:24:15.448Z,4.05
2018-02-22T11:26:42.922Z,3.88
2018-02-22T11:29:10.385Z,3.92
2018-02-22T11:31:37.869Z,3.89
2018-02-22T11:34:05.340Z,4.01
2018-02-22T11:36:32.824Z,3.98
2018-02-22T11:39:00.290Z,4.07
2018-02-22T11:41:27.781Z,3.86
2018-02-22T11:43:55.243Z,4.02
2018-02-22T11:46:22.753Z,4.18
2018-02-22T11:48:50.219Z,4.35
2018-02-22T11:51:17.706Z,4.31
2018-02-22T11:53:45.180Z,4.51
2018-02-22T11:56:12.654Z,4.34
2018-02-22T11:58:40.120Z,4.30
2018-02-22T12:01:07.596Z,4.53
2018-02-22T12:03:35.063Z,4.70
2018-02-22T12:06:02.549Z,4.65
2018-02-22T12:08:30.023Z,4.51
2018-02-22T12:10:57.504Z,4.74
2018-02-22T12:13:24.966Z,4.80
2018-02-22T12:15:52.466Z,4.78
2018-02-22T12:18:19.932Z,4.74
2018-02-22T12:20:47.395Z,4.77
2018-02-22T12:23:14.904Z,4.76
2018-02-22T12:25:43.452Z,5.09
2018-02-22T12:28:10.943Z,4.95
2018-02-22T12:30:38.420Z,4.89
2018-02-22T12:33:05.905Z,5.12
2018-02-22T12:35:33.386Z,5.11
2018-02-22T12:38:00.909Z,5.34
2018-02-22T12:40:28.372Z,5.41
2018-02-22T12:42:55.847Z,5.63
2018-02-22T12:45:23.320Z,5.76
2018-02-22T12:47:50.816Z,5.83
2018-02-22T12:50:18.285Z,6.36
2018-02-22T12:52:45.774Z,6.22
2018-02-22T12:55:13.239Z,6.13
2018-02-22T12:57:40.788Z,5.60
2018-02-22T13:00:08.247Z,5.26
2018-02-22T13:02:35.739Z,5.84
2018-02-22T13:05:03.199Z,5.90
2018-02-22T13:07:30.675Z,5.71
2018-02-22T13:09:58.203Z,5.93
2018-02-22T13:12:25.664Z,5.58
2018-02-22T13:14:53.148Z,5.30
2018-02-22T13:17:20.628Z,5.67
2018-02-22T13:19:48.079Z,6.02
2018-02-22T13:22:15.559Z,6.28
2018-02-22T13:24:43.024Z,6.21
2018-02-22T13:27:10.504Z,5.79
2018-02-22T13:29:37.963Z,6.01
2018-02-22T13:32:05.444Z,6.46
2018-02-22T13:34:35.623Z,6.12
2018-02-22T13:37:14.924Z,6.52
2018-02-22T13:39:42.384Z,7.49
2018-02-22T13:42:09.924Z,8.61
2018-02-22T13:44:49.076Z,8.69
2018-02-22T13:47:16.555Z,9.04
2018-02-22T13:49:55.667Z,9.38
2018-02-22T13:52:23.160Z,10.11
2018-02-22T13:54:50.622Z,9.94
2018-02-22T13:57:20.643Z,11.00
2018-02-22T13:59:48.121Z,11.21
2018-02-22T14:02:25.145Z,11.90
2018-02-22T14:04:52.611Z,11.35
2018-02-22T14:07:20.083Z,11.49
2018-02-22T14:09:47.573Z,11.88
2018-02-22T14:12:15.043Z,11.56
2018-02-22T14:14:42.527Z,11.67
2018-02-22T14:17:09.992Z,11.48
2018-02-22T14:19:37.502Z,11.12
2018-02-22T14:22:04.980Z,11.69
2018-02-22T14:24:33.829Z,10.55
2018-02-22T14:27:01.308Z,10.68
2018-02-22T14:29:28.812Z,10.21
2018-02-22T14:31:56.277Z,10.93
2018-02-22T14:34:23.767Z,11.55
2018-02-22T14:36:51.246Z,11.59
2018-02-22T14:39:18.719Z,11.58
2018-02-22T14:41:46.227Z,11.73
2018-02-22T14:44:13.712Z,12.12
2018-02-22T14:46:41.175Z,11.87
2018-02-22T14:49:08.688Z,11.75
2018-02-22T14:51:36.170Z,11.78
2018-02-22T14:54:03.663Z,10.53
2018-02-22T14:56:31.137Z,11.13
2018-02-22T14:58:58.620Z,10.91
2018-02-22T15:01:26.140Z,10.68
2018-02-22T15:03:53.668Z,10.57
2018-02-22T15:06:21.372Z,10.44
2018-02-22T15:08:48.858Z,10.92
2018-02-22T15:11:16.323Z,10.82
2018-02-22T15:13:43.839Z,10.83
2018-02-22T15:16:11.309Z,10.60
2018-02-22T15:18:38.800Z,10.07
2018-02-22T15:21:06.263Z,10.45
2018-02-22T15:23:33.760Z,10.44
2018-02-22T15:26:01.269Z,10.38
2018-02-22T15:28:28.743Z,10.77
2018-02-22T15:30:56.232Z,10.13
2018-02-22T15:33:23.706Z,8.72
2018-02-22T15:35:51.190Z,9.95
2018-02-22T15:38:18.659Z,9.47
2018-02-22T15:40:46.137Z,9.89
2018-02-22T15:43:13.604Z,9.51
2018-02-22T15:45:41.081Z,9.20
2018-02-22T15:48:08.569Z,8.78
2018-02-22T15:50:36.053Z,8.47
2018-02-22T15:53:03.516Z,8.53
2018-02-22T15:55:31.017Z,8.08
2018-02-22T15:57:58.481Z,7.74
2018-02-22T16:00:25.966Z,6.98
2018-02-22T16:02:53.473Z,6.65
2018-02-22T16:05:20.952Z,6.23
2018-02-22T16:07:48.416Z,6.08
2018-02-22T16:10:15.904Z,5.94
2018-02-22T16:12:43.391Z,5.59
2018-02-22T16:15:10.880Z,5.20
2018-02-22T16:17:38.336Z,5.23
2018-02-22T16:20:05.933Z,4.65
2018-02-22T16:22:33.394Z,4.38
2018-02-22T16:25:00.877Z,4.04
2018-02-22T16:27:28.566Z,3.74
2018-02-22T16:29:56.058Z,3.69
2018-02-22T16:32:23.603Z,3.53
2018-02-22T16:34:51.087Z,3.41
2018-02-22T16:37:18.563Z,3.30
2018-02-22T16:39:46.035Z,3.17
2018-02-22T16:42:13.520Z,3.06
2018-02-22T16:44:41.016Z,2.97
2018-02-22T16:47:08.474Z,2.98
2018-02-22T16:49:35.963Z,2.92
2018-02-22T16:52:03.471Z,2.89
2018-02-22T16:54:30.960Z,2.84
2018-02-22T16:56:58.422Z,2.74
2018-02-22T16:59:25.882Z,2.58
2018-02-22T17:01:53.382Z,2.47
2018-02-22T17:04:20.842Z,2.47
2018-02-22T17:06:49.679Z,2.39
2018-02-22T17:09:17.428Z,2.25
2018-02-22T17:11:44.993Z,2.12
2018-02-22T17:14:12.475Z,2.19
2018-02-22T17:16:39.984Z,2.17
2018-02-22T17:19:07.440Z,2.13
2018-02-22T17:21:34.922Z,2.11
2018-02-22T17:24:02.396Z,2.10
2018-02-22T17:26:35.381Z,2.00
2018-02-22T17:29:08.509Z,1.97
2018-02-22T17:31:41.641Z,1.87
2018-02-22T17:34:09.108Z,1.84
2018-02-22T17:36:42.228Z,1.75
2018-02-22T17:39:10.024Z,1.71
2018-02-22T17:41:38.111Z,1.78
2018-02-22T17:44:05.570Z,1.80
2018-02-22T17:46:33.075Z,1.72
2018-02-22T17:49:00.552Z,1.64
2018-02-22T17:51:28.048Z,1.48
2018-02-22T17:53:55.514Z,1.33
2018-02-22T17:56:22.999Z,1.32
2018-02-22T17:58:50.455Z,1.28
2018-02-22T18:01:18.870Z,1.23
2018-02-22T18:03:46.330Z,1.19
2018-02-22T18:06:13.809Z,1.12
2018-02-22T18:08:41.267Z,1.03
2018-02-22T18:11:08.752Z,1.02
2018-02-22T18:13:36.223Z,0.96
2018-02-22T18:16:03.709Z,1.00
2018-02-22T18:18:31.168Z,0.92
2018-02-22T18:20:58.652Z,0.98
2018-02-22T18:23:26.166Z,1.09
2018-02-22T18:25:53.636Z,1.15
2018-02-22T18:28:21.116Z,1.08
2018-02-22T18:30:48.584Z,1.01
2018-02-22T18:33:16.075Z,0.90
2018-02-22T18:35:43.531Z,0.82
2018-02-22T18:38:11.018Z,0.77
2018-02-22T18:40:43.859Z,0.75
2018-02-22T18:43:16.869Z,0.89
2018-02-22T18:45:44.351Z,0.80
2018-02-22T18:48:11.827Z,0.73
2018-02-22T18:50:39.288Z,0.76
2018-02-22T18:53:06.794Z,0.86
2018-02-22T18:55:34.268Z,0.95
2018-02-22T18:58:01.744Z,0.93
2018-02-22T19:00:29.203Z,0.87
2018-02-22T19:02:56.690Z,0.84
2018-02-22T19:05:24.143Z,0.92
2018-02-22T19:07:51.620Z,0.94
2018-02-22T19:10:19.093Z,0.79
2018-02-22T19:12:46.571Z,0.65
2018-02-22T19:15:14.040Z,0.63
2018-02-22T19:17:41.514Z,0.65
2018-02-22T19:20:08.977Z,0.63
2018-02-22T19:22:37.463Z,0.59
2018-02-22T19:25:04.963Z,0.47
2018-02-22T19:27:32.452Z,0.37
2018-02-22T19:29:59.931Z,0.21
2018-02-22T19:32:27.407Z,0.09
2018-02-22T19:34:54.867Z,0.16
2018-02-22T19:37:22.364Z,0.12
2018-02-22T19:39:49.836Z,0.07
2018-02-22T19:42:17.322Z,-0.05
2018-02-22T19:44:44.787Z,-0.13
2018-02-22T19:47:12.270Z,-0.24
2018-02-22T19:49:39.748Z,-0.23
2018-02-22T19:52:07.214Z,-0.22
2018-02-22T19:54:34.720Z,-0.20
2018-02-22T19:57:02.197Z,-0.10
2018-02-22T19:59:29.683Z,-0.02
2018-02-22T20:01:57.151Z,-0.05
2018-02-22T20:04:24.656Z,-0.09
2018-02-22T20:06:52.127Z,-0.06
2018-02-22T20:09:19.618Z,-0.02
2018-02-22T20:11:47.093Z,0.08
2018-02-22T20:14:14.608Z,0.04
2018-02-22T20:16:42.074Z,0.00
2018-02-22T20:19:09.564Z,-0.04
2018-02-22T20:21:37.022Z,0.02
2018-02-22T20:24:04.520Z,0.07
2018-02-22T20:26:32.003Z,-0.12
2018-02-22T20:28:59.483Z,-0.20
2018-02-22T20:31:26.972Z,-0.32
2018-02-22T20:33:54.462Z,-0.38
2018-02-22T20:36:21.948Z,-0.38
2018-02-22T20:38:49.435Z,-0.40
2018-02-22T20:41:16.900Z,-0.36
2018-02-22T20:43:44.888Z,-0.32
2018-02-22T20:46:12.359Z,-0.31
2018-02-22T20:48:39.859Z,-0.35
2018-02-22T20:51:07.327Z,-0.46
2018-02-22T20:53:37.662Z,-0.39
2018-02-22T20:56:05.126Z,-0.42
2018-02-22T20:58:33.452Z,-0.39
2018-02-22T21:01:00.912Z,-0.47
2018-02-22T21:03:28.394Z,-0.53
2018-02-22T21:05:55.859Z,-0.66
2018-02-22T21:08:23.349Z,-0.70
2018-02-22T21:10:50.814Z,-0.84
2018-02-22T21:13:18.297Z,-0.96
2018-02-22T21:15:45.790Z,-1.01
2018-02-22T21:18:13.257Z,-0.94
2018-02-22T21:20:40.752Z,-0.91
2018-02-22T21:23:08.221Z,-0.96
2018-02-22T21:25:35.703Z,-0.87
2018-02-22T21:28:03.186Z,-0.83
2018-02-22T21:30:30.666Z,-0.85
2018-02-22T21:32:58.127Z,-0.87
2018-02-22T21:35:25.616Z,-0.80
2018-02-22T21:37:53.079Z,-0.80
2018-02-22T21:40:20.566Z,-0.80
2018-02-22T21:42:48.037Z,-0.78
2018-02-22T21:45:15.523Z,-0.79
2018-02-22T21:47:43.002Z,-0.82
2018-02-22T21:50:10.485Z,-0.84
2018-02-22T21:52:37.953Z,-0.88
2018-02-22T21:55:05.439Z,-0.88
2018-02-22T21:57:32.903Z,-0.84
2018-02-22T22:00:00.390Z,-0.91
2018-02-22T22:02:27.893Z,-0.88
2018-02-22T22:04:55.375Z,-0.94
2018-02-22T22:07:22.849Z,-0.94
2018-02-22T22:09:50.331Z,-1.02
2018-02-22T22:12:17.799Z,-0.95
2018-02-22T22:14:45.284Z,-1.01
2018-02-22T22:17:12.760Z,-1.06
2018-02-22T22:19:40.246Z,-1.10
2018-02-22T22:22:07.712Z,-1.07
2018-02-22T22:24:35.191Z,-0.99
2018-02-22T22:27:02.675Z,-0.97
2018-02-22T22:29:30.150Z,-1.03
2018-02-22T22:31:57.635Z,-1.14
2018-02-22T22:34:25.112Z,-1.22
2018-02-22T22:36:52.612Z,-1.26
2018-02-22T22:39:20.096Z,-1.32
2018-02-22T22:41:47.581Z,-1.35
2018-02-22T22:44:15.048Z,-1.38
2018-02-22T22:46:42.532Z,-1.44
2018-02-22T22:49:10.008Z,-1.46
2018-02-22T22:51:37.487Z,-1.41
2018-02-22T22:54:04.955Z,-1.45
2018-02-22T22:56:32.460Z,-1.46
2018-02-22T22:58:59.936Z,-1.47
2018-02-22T23:01:27.425Z,-1.51
2018-02-22T23:03:54.903Z,-1.40
2018-02-22T23:06:22.392Z,-1.35
2018-02-22T23:08:49.851Z,-1.40
2018-02-22T23:11:17.356Z,-1.40
2018-02-22T23:13:44.825Z,-1.43
2018-02-22T23:16:12.307Z,-1.50
2018-02-22T23:18:39.775Z,-1.57
2018-02-22T23:21:07.259Z,-1.68
2018-02-22T23:23:34.727Z,-1.69
2018-02-22T23:26:02.249Z,-1.74
2018-02-22T23:28:29.715Z,-1.72
2018-02-22T23:30:57.208Z,-1.66
2018-02-22T23:33:24.675Z,-1.69
2018-02-22T23:35:52.166Z,-1.79
2018-02-22T23:38:19.652Z,-1.78
2018-02-22T23:40:48.943Z,-1.76
2018-02-22T23:43:16.404Z,-1.74
2018-02-22T23:45:43.868Z,-1.80
2018-02-22T23:48:11.351Z,-1.74
2018-02-22T23:50:38.813Z,-1.82
2018-02-22T23:53:06.295Z,-1.83
2018-02-22T23:55:33.750Z,-1.83
2018-02-22T23:58:01.235Z,-1.86
